createdAt,value
2018-01-20T00:01:54.357Z,8.38
2018-01-20T00:04:21.210Z,8.25
2018-01-20T00:06:48.065Z,8.70
2018-01-20T00:09:27.297Z,7.72
2018-01-20T00:12:01.262Z,9.82
2018-01-20T00:14:28.821Z,8.63
2018-01-20T00:16:56.427Z,8.45
2018-01-20T00:19:23.269Z,9.93
2018-01-20T00:21:50.114Z,10.55
2018-01-20T00:24:16.962Z,10.82
2018-01-20T00:26:43.869Z,9.23
2018-01-20T00:29:10.712Z,10.05
2018-01-20T00:31:37.600Z,10.38
2018-01-20T00:34:04.501Z,10.10
2018-01-20T00:36:31.354Z,9.50
2018-01-20T00:38:58.225Z,11.50
2018-01-20T00:41:25.042Z,9.10
2018-01-20T00:43:51.885Z,11.60
2018-01-20T00:46:18.737Z,9.20
2018-01-20T00:48:45.611Z,10.23
2018-01-20T00:51:12.457Z,9.52
2018-01-20T00:53:39.262Z,9.90
2018-01-20T00:56:06.108Z,11.10
2018-01-20T00:58:33.094Z,8.45
2018-01-20T01:00:59.948Z,9.00
2018-01-20T01:03:26.773Z,10.55
2018-01-20T01:05:54.345Z,9.68
2018-01-20T01:08:22.462Z,8.77
2018-01-20T01:10:49.309Z,8.98
2018-01-20T01:13:16.133Z,9.27
2018-01-20T01:15:43.046Z,8.90
2018-01-20T01:18:10.674Z,8.88
2018-01-20T01:20:37.578Z,8.10
2018-01-20T01:23:05.145Z,8.90
2018-01-20T01:25:31.966Z,7.80
2018-01-20T01:27:58.850Z,9.15
2018-01-20T01:30:25.714Z,8.45
2018-01-20T01:32:52.601Z,9.07
2018-01-20T01:35:19.454Z,8.27
2018-01-20T01:37:47.377Z,9.00
2018-01-20T01:40:14.977Z,9.30
2018-01-20T01:42:41.803Z,7.95
2018-01-20T01:45:08.682Z,9.10
2018-01-20T01:47:35.606Z,7.78
2018-01-20T01:50:02.521Z,7.78
2018-01-20T01:52:30.106Z,6.78
2018-01-20T01:54:56.934Z,6.85
2018-01-20T01:57:26.647Z,6.57
2018-01-20T01:59:53.486Z,7.15
2018-01-20T02:02:21.062Z,6.93
2018-01-20T02:04:48.629Z,8.35
2018-01-20T02:07:15.514Z,9.90
2018-01-20T02:09:42.433Z,8.68
2018-01-20T02:12:09.262Z,7.43
2018-01-20T02:14:36.135Z,8.50
2018-01-20T02:17:03.007Z,7.15
2018-01-20T02:19:30.074Z,7.93
2018-01-20T02:21:56.927Z,7.68
2018-01-20T02:24:23.806Z,7.32
2018-01-20T02:26:50.773Z,8.20
2018-01-20T02:29:17.618Z,7.00
2018-01-20T02:31:44.500Z,6.57
2018-01-20T02:34:11.350Z,7.18
2018-01-20T02:36:38.250Z,6.25
2018-01-20T02:39:05.186Z,7.20
2018-01-20T02:41:32.010Z,6.85
2018-01-20T02:43:58.889Z,6.30
2018-01-20T02:46:25.752Z,6.18
2018-01-20T02:48:52.646Z,8.70
2018-01-20T02:51:19.686Z,7.62
2018-01-20T02:53:46.516Z,7.87
2018-01-20T02:56:13.353Z,7.07
2018-01-20T02:58:40.237Z,7.97
2018-01-20T03:01:07.053Z,7.45
2018-01-20T03:03:33.922Z,7.30
2018-01-20T03:06:00.776Z,6.50
2018-01-20T03:08:27.722Z,6.10
2018-01-20T03:10:54.537Z,7.55
2018-01-20T03:13:21.398Z,6.43
2018-01-20T03:15:48.213Z,6.37
2018-01-20T03:18:15.080Z,7.72
2018-01-20T03:20:41.939Z,6.82
2018-01-20T03:23:09.562Z,7.20
2018-01-20T03:25:37.194Z,6.47
2018-01-20T03:28:04.123Z,6.78
2018-01-20T03:30:31.028Z,6.00
2018-01-20T03:32:57.910Z,6.55
2018-01-20T03:35:24.776Z,6.82
2018-01-20T03:37:51.693Z,6.85
2018-01-20T03:40:18.489Z,7.03
2018-01-20T03:42:45.322Z,6.95
2018-01-20T03:45:12.197Z,7.62
2018-01-20T03:47:39.160Z,6.62
2018-01-20T03:50:06.806Z,6.75
2018-01-20T03:52:34.417Z,7.40
2018-01-20T03:55:01.287Z,7.15
2018-01-20T03:57:28.129Z,7.28
2018-01-20T03:59:54.989Z,6.57
2018-01-20T04:02:21.817Z,7.43
2018-01-20T04:04:48.702Z,8.55
2018-01-20T04:07:17.387Z,10.68
2018-01-20T04:09:44.941Z,8.82
2018-01-20T04:12:12.569Z,8.30
2018-01-20T04:14:39.397Z,8.50
2018-01-20T04:17:06.272Z,9.32
2018-01-20T04:19:33.877Z,8.55
2018-01-20T04:22:00.709Z,8.40
2018-01-20T04:24:27.578Z,9.90
2018-01-20T04:26:54.557Z,8.10
2018-01-20T04:29:21.437Z,8.48
2018-01-20T04:31:49.055Z,7.97
2018-01-20T04:34:15.858Z,9.32
2018-01-20T04:36:42.701Z,9.55
2018-01-20T04:39:09.634Z,9.15
2018-01-20T04:41:36.520Z,9.23
2018-01-20T04:44:03.370Z,9.18
2018-01-20T04:46:30.192Z,8.45
2018-01-20T04:48:57.090Z,9.15
2018-01-20T04:51:24.666Z,9.40
2018-01-20T04:53:51.529Z,10.27
2018-01-20T04:56:18.385Z,7.57
2018-01-20T04:58:45.247Z,9.85
2018-01-20T05:01:12.058Z,9.63
2018-01-20T05:03:38.922Z,8.70
2018-01-20T05:06:05.753Z,11.10
2018-01-20T05:08:32.609Z,10.38
2018-01-20T05:10:59.456Z,11.60
2018-01-20T05:13:26.270Z,11.63
2018-01-20T05:15:53.073Z,10.18
2018-01-20T05:18:20.725Z,11.07
2018-01-20T05:20:47.538Z,10.90
2018-01-20T05:23:14.362Z,10.85
2018-01-20T05:25:41.213Z,9.68
2018-01-20T05:28:08.189Z,9.38
2018-01-20T05:30:35.062Z,8.60
2018-01-20T05:33:02.803Z,9.48
2018-01-20T05:35:29.613Z,10.00
2018-01-20T05:37:56.571Z,10.20
2018-01-20T05:40:23.440Z,9.77
2018-01-20T05:42:51.045Z,11.02
2018-01-20T05:45:17.946Z,11.05
2018-01-20T05:47:45.595Z,9.95
2018-01-20T05:50:12.465Z,9.68
2018-01-20T05:52:39.269Z,9.82
2018-01-20T05:55:06.130Z,9.63
2018-01-20T05:57:33.792Z,9.60
2018-01-20T06:00:00.646Z,8.75
2018-01-20T06:02:27.461Z,9.70
2018-01-20T06:04:54.368Z,10.30
2018-01-20T06:07:21.250Z,11.45
2018-01-20T06:09:48.825Z,11.32
2018-01-20T06:12:16.422Z,10.23
2018-01-20T06:14:43.365Z,9.55
2018-01-20T06:17:10.537Z,9.52
2018-01-20T06:19:37.450Z,9.50
2018-01-20T06:22:04.393Z,10.40
2018-01-20T06:24:31.434Z,11.32
2018-01-20T06:26:59.086Z,12.95
2018-01-20T06:29:26.660Z,10.02
2018-01-20T06:31:53.522Z,11.35
2018-01-20T06:34:20.371Z,10.13
2018-01-20T06:36:47.193Z,12.63
2018-01-20T06:39:14.074Z,11.27
2018-01-20T06:41:40.922Z,10.85
2018-01-20T06:44:07.776Z,10.20
2018-01-20T06:46:34.598Z,10.90
2018-01-20T06:49:01.502Z,9.40
2018-01-20T06:51:28.386Z,10.57
2018-01-20T06:53:55.269Z,9.57
2018-01-20T06:56:22.846Z,9.63
2018-01-20T06:58:49.818Z,10.98
2018-01-20T07:01:16.710Z,11.73
2018-01-20T07:03:43.621Z,9.13
2018-01-20T07:06:10.465Z,10.45
2018-01-20T07:08:37.382Z,8.77
2018-01-20T07:11:05.009Z,9.52
2018-01-20T07:13:31.908Z,9.20
2018-01-20T07:15:58.790Z,10.65
2018-01-20T07:18:25.766Z,10.05
2018-01-20T07:20:53.346Z,9.70
2018-01-20T07:23:20.928Z,10.50
2018-01-20T07:25:47.753Z,10.00
2018-01-20T07:28:14.770Z,11.12
2018-01-20T07:30:41.653Z,10.70
2018-01-20T07:33:08.538Z,12.80
2018-01-20T07:35:35.398Z,13.90
2018-01-20T07:38:03.089Z,12.90
2018-01-20T07:40:29.930Z,11.40
2018-01-20T07:42:57.255Z,12.95
2018-01-20T07:45:24.505Z,13.88
2018-01-20T07:47:52.365Z,16.45
2018-01-20T07:50:20.657Z,16.12
2018-01-20T07:52:48.975Z,16.10
2018-01-20T07:55:16.264Z,14.95
2018-01-20T07:57:44.448Z,14.43
2018-01-20T08:00:11.904Z,21.42
2018-01-20T08:02:39.477Z,18.10
2018-01-20T08:05:06.489Z,15.95
2018-01-20T08:07:33.452Z,16.40
2018-01-20T08:10:00.302Z,14.73
2018-01-20T08:12:27.915Z,15.38
2018-01-20T08:14:54.785Z,14.02
2018-01-20T08:17:21.629Z,15.35
2018-01-20T08:19:48.481Z,14.93
2018-01-20T08:22:16.050Z,14.23
2018-01-20T08:24:43.646Z,15.30
2018-01-20T08:27:10.525Z,14.60
2018-01-20T08:29:37.322Z,12.30
2018-01-20T08:32:04.221Z,13.70
2018-01-20T08:34:31.091Z,13.75
2018-01-20T08:36:58.022Z,11.18
2018-01-20T08:39:24.885Z,12.57
2018-01-20T08:41:51.748Z,12.52
2018-01-20T08:44:18.590Z,13.73
2018-01-20T08:46:45.442Z,12.45
2018-01-20T08:49:12.355Z,11.75
2018-01-20T08:51:39.930Z,14.30
2018-01-20T08:54:07.487Z,18.25
2018-01-20T08:56:34.316Z,17.02
2018-01-20T08:59:01.893Z,17.95
2018-01-20T09:01:28.757Z,17.40
2018-01-20T09:03:55.589Z,15.30
2018-01-20T09:06:22.466Z,17.08
2018-01-20T09:08:49.332Z,15.75
2018-01-20T09:11:16.938Z,15.77
2018-01-20T09:13:43.753Z,13.80
2018-01-20T09:16:11.317Z,17.52
2018-01-20T09:18:38.251Z,16.35
2018-01-20T09:21:05.814Z,15.00
2018-01-20T09:23:33.429Z,15.13
2018-01-20T09:26:00.255Z,12.95
2018-01-20T09:28:27.948Z,13.13
2018-01-20T09:30:54.806Z,12.15
2018-01-20T09:33:21.629Z,13.48
2018-01-20T09:35:48.473Z,14.05
2018-01-20T09:38:15.406Z,13.82
2018-01-20T09:40:42.254Z,14.68
2018-01-20T09:43:09.144Z,14.05
2018-01-20T09:45:35.989Z,14.20
2018-01-20T09:48:03.605Z,12.45
2018-01-20T09:50:30.494Z,11.45
2018-01-20T09:52:57.464Z,12.00
2018-01-20T09:55:24.307Z,9.93
2018-01-20T09:57:51.145Z,8.00
2018-01-20T10:00:18.761Z,7.80
2018-01-20T10:02:45.678Z,9.48
2018-01-20T10:05:12.525Z,10.55
2018-01-20T10:07:39.405Z,9.63
2018-01-20T10:10:06.276Z,10.70
2018-01-20T10:12:33.853Z,11.32
2018-01-20T10:15:00.710Z,10.43
2018-01-20T10:17:27.654Z,13.75
2018-01-20T10:19:54.506Z,15.23
2018-01-20T10:22:21.357Z,12.88
2018-01-20T10:24:48.181Z,11.80
2018-01-20T10:27:15.027Z,10.38
2018-01-20T10:29:41.901Z,8.50
2018-01-20T10:32:09.478Z,10.60
2018-01-20T10:34:36.330Z,10.63
2018-01-20T10:37:03.233Z,8.20
2018-01-20T10:39:30.057Z,8.90
2018-01-20T10:41:56.954Z,10.10
2018-01-20T10:44:23.821Z,9.32
2018-01-20T10:46:50.648Z,8.40
2018-01-20T10:49:17.484Z,7.33
2018-01-20T10:51:45.110Z,6.30
2018-01-20T10:54:12.717Z,8.13
2018-01-20T10:56:39.530Z,6.53
2018-01-20T10:59:06.614Z,7.10
2018-01-20T11:01:33.485Z,8.07
2018-01-20T11:04:00.302Z,8.17
2018-01-20T11:06:27.172Z,7.57
2018-01-20T11:08:54.042Z,8.10
2018-01-20T11:11:20.865Z,8.27
2018-01-20T11:13:47.712Z,9.03
2018-01-20T11:16:14.515Z,7.50
2018-01-20T11:18:41.442Z,7.70
2018-01-20T11:21:08.302Z,7.50
2018-01-20T11:23:35.172Z,7.37
2018-01-20T11:26:02.025Z,6.53
2018-01-20T11:28:28.985Z,8.03
2018-01-20T11:30:55.811Z,8.53
2018-01-20T11:33:22.687Z,8.67
2018-01-20T11:35:50.282Z,7.70
2018-01-20T11:38:17.153Z,8.60
2018-01-20T11:40:44.196Z,8.13
2018-01-20T11:43:11.002Z,7.50
2018-01-20T11:45:37.810Z,7.80
2018-01-20T11:48:04.797Z,8.00
2018-01-20T11:50:31.698Z,8.33
2018-01-20T11:52:59.278Z,8.03
2018-01-20T11:55:26.146Z,8.07
2018-01-20T11:57:53.087Z,8.23
2018-01-20T12:00:19.945Z,7.83
2018-01-20T12:02:46.761Z,8.70
2018-01-20T12:05:13.629Z,8.90
2018-01-20T12:07:40.493Z,9.40
2018-01-20T12:10:07.342Z,10.13
2018-01-20T12:12:34.213Z,9.20
2018-01-20T12:15:01.073Z,9.70
2018-01-20T12:17:27.978Z,10.47
2018-01-20T12:19:54.893Z,8.50
2018-01-20T12:22:21.768Z,9.37
2018-01-20T12:24:48.653Z,9.93
2018-01-20T12:27:15.598Z,10.53
2018-01-20T12:29:42.477Z,9.20
2018-01-20T12:32:09.385Z,10.00
2018-01-20T12:34:36.286Z,8.40
2018-01-20T12:37:03.264Z,7.90
2018-01-20T12:39:30.905Z,8.80
2018-01-20T12:41:57.765Z,9.90
2018-01-20T12:44:24.653Z,9.37
2018-01-20T12:46:51.529Z,9.00
2018-01-20T12:49:18.494Z,8.40
2018-01-20T12:51:46.142Z,8.33
2018-01-20T12:54:13.744Z,8.37
2018-01-20T12:56:40.599Z,8.23
2018-01-20T12:59:07.458Z,8.80
2018-01-20T13:01:34.362Z,7.83
2018-01-20T13:04:01.209Z,7.67
2018-01-20T13:06:28.045Z,7.33
2018-01-20T13:08:54.969Z,7.70
2018-01-20T13:11:22.601Z,7.63
2018-01-20T13:13:50.211Z,9.10
2018-01-20T13:16:17.068Z,7.70
2018-01-20T13:18:44.002Z,6.90
2018-01-20T13:21:10.858Z,7.17
2018-01-20T13:23:37.688Z,8.03
2018-01-20T13:26:04.558Z,8.03
2018-01-20T13:28:31.425Z,9.17
2018-01-20T13:30:58.273Z,8.50
2018-01-20T13:33:25.920Z,8.60
2018-01-20T13:35:52.750Z,8.10
2018-01-20T13:38:19.614Z,8.63
2018-01-20T13:40:46.466Z,9.43
2018-01-20T13:43:13.300Z,8.33
2018-01-20T13:45:40.194Z,7.03
2018-01-20T13:48:07.844Z,7.33
2018-01-20T13:50:34.798Z,7.63
2018-01-20T13:53:01.882Z,6.83
2018-01-20T13:55:28.717Z,7.60
2018-01-20T13:57:55.577Z,8.80
2018-01-20T14:00:22.460Z,8.37
2018-01-20T14:02:50.045Z,8.50
2018-01-20T14:05:16.902Z,9.50
2018-01-20T14:07:43.769Z,8.70
2018-01-20T14:10:10.682Z,8.70
2018-01-20T14:12:37.557Z,8.50
2018-01-20T14:15:04.425Z,8.27
2018-01-20T14:17:32.055Z,9.70
2018-01-20T14:19:58.977Z,8.25
2018-01-20T14:22:25.794Z,10.90
2018-01-20T14:24:52.796Z,9.93
2018-01-20T14:27:19.753Z,8.30
2018-01-20T14:29:47.496Z,9.13
2018-01-20T14:32:14.341Z,8.27
2018-01-20T14:34:41.289Z,9.77
2018-01-20T14:37:08.314Z,8.27
2018-01-20T14:39:35.130Z,9.57
2018-01-20T14:42:02.166Z,10.40
2018-01-20T14:44:29.056Z,8.93
2018-01-20T14:46:56.009Z,9.15
2018-01-20T14:49:23.086Z,7.93
2018-01-20T14:51:51.734Z,9.85
2018-01-20T14:54:18.982Z,9.07
2018-01-20T14:56:45.894Z,9.60
2018-01-20T14:59:13.134Z,8.38
2018-01-20T15:01:40.222Z,9.27
2018-01-20T15:04:07.367Z,9.32
2018-01-20T15:06:34.270Z,8.13
2018-01-20T15:09:02.206Z,7.20
2018-01-20T15:11:29.188Z,8.98
2018-01-20T15:13:56.181Z,10.85
2018-01-20T15:16:23.057Z,9.57
2018-01-20T15:21:39.202Z,9.07
2018-01-20T15:24:06.419Z,9.40
2018-01-20T15:26:33.275Z,9.55
2018-01-20T15:29:00.201Z,11.50
2018-01-20T15:31:27.047Z,11.57
2018-01-20T15:33:53.902Z,13.60
2018-01-20T15:36:20.814Z,14.07
2018-01-20T15:38:47.874Z,15.90
2018-01-20T15:41:14.877Z,16.83
2018-01-20T15:43:42.067Z,14.45
2018-01-20T15:46:08.986Z,14.23
2018-01-20T15:48:36.197Z,14.18
2018-01-20T15:51:03.810Z,11.43
2018-01-20T15:53:30.712Z,11.27
2018-01-20T15:55:57.660Z,12.45
2018-01-20T15:58:25.525Z,10.55
2018-01-20T16:00:53.037Z,11.05
2018-01-20T16:03:20.914Z,13.32
2018-01-20T16:05:47.769Z,12.20
2018-01-20T16:08:14.987Z,11.95
2018-01-20T16:10:42.002Z,12.27
2018-01-20T16:13:09.330Z,14.65
2018-01-20T16:15:36.653Z,13.25
2018-01-20T16:18:04.296Z,12.43
2018-01-20T16:20:31.443Z,16.25
2018-01-20T16:22:59.326Z,19.00
2018-01-20T16:25:26.827Z,19.60
2018-01-20T16:27:54.642Z,20.00
2018-01-20T16:30:21.630Z,19.27
2018-01-20T16:32:48.755Z,18.05
2018-01-20T16:35:15.710Z,17.92
2018-01-20T16:37:42.702Z,16.50
2018-01-20T16:40:10.062Z,17.20
2018-01-20T16:42:36.885Z,14.85
2018-01-20T16:45:04.059Z,13.77
2018-01-20T16:47:31.069Z,13.98
2018-01-20T16:49:58.234Z,13.27
2018-01-20T16:52:25.095Z,14.73
2018-01-20T16:54:52.079Z,14.80
2018-01-20T16:57:19.050Z,18.95
2018-01-20T16:59:45.921Z,20.35
2018-01-20T17:02:13.581Z,18.20
2018-01-20T17:04:40.501Z,16.92
2018-01-20T17:07:08.418Z,14.55
2018-01-20T17:09:35.558Z,13.85
2018-01-20T17:12:02.518Z,13.35
2018-01-20T17:14:29.429Z,13.73
2018-01-20T17:16:56.490Z,14.00
2018-01-20T17:19:24.220Z,14.27
2018-01-20T17:21:52.233Z,16.65
2018-01-20T17:24:19.262Z,19.37
2018-01-20T17:26:46.236Z,21.20
2018-01-20T17:29:13.966Z,19.95
2018-01-20T17:31:40.993Z,18.42
2018-01-20T17:34:14.545Z,16.15
2018-01-20T17:36:41.406Z,16.70
2018-01-20T17:39:08.302Z,16.20
2018-01-20T17:41:35.210Z,18.15
2018-01-20T17:44:02.135Z,21.08
2018-01-20T17:46:29.020Z,19.62
2018-01-20T17:48:56.678Z,19.80
2018-01-20T17:51:24.248Z,18.55
2018-01-20T17:53:51.138Z,22.25
2018-01-20T17:56:17.982Z,23.73
2018-01-20T17:58:45.766Z,24.12
2018-01-20T18:01:13.552Z,24.02
2018-01-20T18:03:40.591Z,23.42
2018-01-20T18:06:07.766Z,20.15
2018-01-20T18:08:34.734Z,22.90
2018-01-20T18:11:01.582Z,24.30
2018-01-20T18:13:28.463Z,28.52
2018-01-20T18:15:55.375Z,27.87
2018-01-20T18:18:22.378Z,25.62
2018-01-20T18:20:49.962Z,24.85
2018-01-20T18:23:16.826Z,23.30
2018-01-20T18:25:43.698Z,22.48
2018-01-20T18:28:11.599Z,23.85
2018-01-20T18:30:38.474Z,22.73
2018-01-20T18:33:05.326Z,25.15
2018-01-20T18:35:32.231Z,26.37
2018-01-20T18:38:03.571Z,26.42
2018-01-20T18:40:30.446Z,24.37
2018-01-20T18:42:57.293Z,25.67
2018-01-20T18:45:24.131Z,24.17
2018-01-20T18:47:51.118Z,25.80
2018-01-20T18:50:18.753Z,23.73
2018-01-20T18:55:19.305Z,25.42
2018-01-20T18:57:46.170Z,24.55
2018-01-20T19:00:13.071Z,25.55
2018-01-20T19:02:39.957Z,26.17
2018-01-20T19:05:06.846Z,27.17
2018-01-20T19:07:33.754Z,27.27
2018-01-20T19:10:00.649Z,28.73
2018-01-20T19:12:27.493Z,28.58
2018-01-20T19:14:54.330Z,28.90
2018-01-20T19:17:22.249Z,27.95
2018-01-20T19:19:49.354Z,31.55
2018-01-20T19:22:17.054Z,26.73
2018-01-20T19:24:44.778Z,27.35
2018-01-20T19:27:11.675Z,25.88
2018-01-20T19:29:38.510Z,26.15
2018-01-20T19:32:06.118Z,32.67
2018-01-20T19:34:32.962Z,31.60
2018-01-20T19:36:59.818Z,30.05
2018-01-20T19:39:26.649Z,32.28
2018-01-20T19:41:53.659Z,36.85
2018-01-20T19:44:20.547Z,36.92
2018-01-20T19:46:47.381Z,33.38
2018-01-20T19:49:16.153Z,44.42
2018-01-20T19:51:43.186Z,42.95
2018-01-20T19:54:10.862Z,36.78
2018-01-20T19:56:38.581Z,37.45
2018-01-20T19:59:05.428Z,38.38
2018-01-20T20:01:33.076Z,34.53
2018-01-20T20:04:00.015Z,35.28
2018-01-20T20:06:26.908Z,32.58
2018-01-20T20:08:54.134Z,33.08
2018-01-20T20:11:21.874Z,25.67
2018-01-20T20:13:48.787Z,29.17
2018-01-20T20:16:16.534Z,26.02
2018-01-20T20:18:43.479Z,26.45
2018-01-20T20:21:11.069Z,25.75
2018-01-20T20:23:38.086Z,22.23
2018-01-20T20:26:04.994Z,23.00
2018-01-20T20:28:31.972Z,25.15
2018-01-20T20:30:59.651Z,27.37
2018-01-20T20:33:27.238Z,25.80
2018-01-20T20:35:54.122Z,21.67
2018-01-20T20:38:21.211Z,21.17
2018-01-20T20:40:48.050Z,21.95
2018-01-20T20:43:15.210Z,24.00
2018-01-20T20:45:42.111Z,25.08
2018-01-20T20:48:09.863Z,25.70
2018-01-20T20:50:36.717Z,23.87
2018-01-20T20:53:03.861Z,21.92
2018-01-20T20:55:30.727Z,24.63
2018-01-20T20:57:57.897Z,23.23
2018-01-20T21:00:24.874Z,26.10
2018-01-20T21:02:51.708Z,23.70
2018-01-20T21:05:18.806Z,20.10
2018-01-20T21:07:45.777Z,22.27
2018-01-20T21:10:12.766Z,22.92
2018-01-20T21:12:39.593Z,23.80
2018-01-20T21:15:06.457Z,21.33
2018-01-20T21:17:33.539Z,27.55
2018-01-20T21:20:00.405Z,27.90
2018-01-20T21:22:27.251Z,29.45
2018-01-20T21:24:54.093Z,25.45
2018-01-20T21:27:20.973Z,23.35
2018-01-20T21:29:47.805Z,24.75
2018-01-20T21:32:14.790Z,24.50
2018-01-20T21:34:42.380Z,23.25
2018-01-20T21:37:09.335Z,25.17
2018-01-20T21:39:36.295Z,23.08
2018-01-20T21:42:03.217Z,22.02
2018-01-20T21:44:30.094Z,21.42
2018-01-20T21:46:56.970Z,20.52
2018-01-20T21:49:24.934Z,21.08
2018-01-20T21:51:51.830Z,22.25
2018-01-20T21:54:18.717Z,20.30
2018-01-20T21:56:46.306Z,19.17
2018-01-20T21:59:13.200Z,18.25
2018-01-20T22:01:40.082Z,17.65
2018-01-20T22:04:07.670Z,19.67
2018-01-20T22:06:34.489Z,16.75
2018-01-20T22:09:02.221Z,17.52
2018-01-20T22:11:29.349Z,17.30
2018-01-20T22:13:56.230Z,19.77
2018-01-20T22:16:23.830Z,17.25
2018-01-20T22:18:50.717Z,17.90
2018-01-20T22:21:17.578Z,21.77
2018-01-20T22:23:45.165Z,20.30
2018-01-20T22:26:12.066Z,22.10
2018-01-20T22:28:39.038Z,18.77
2018-01-20T22:31:06.626Z,20.35
2018-01-20T22:33:33.474Z,23.70
2018-01-20T22:36:00.297Z,19.52
2018-01-20T22:38:27.946Z,18.40
2018-01-20T22:40:56.421Z,19.77
2018-01-20T22:43:24.010Z,20.00
2018-01-20T22:45:51.652Z,20.98
2018-01-20T22:48:18.594Z,20.35
2018-01-20T22:50:45.494Z,22.48
2018-01-20T22:53:13.130Z,22.13
2018-01-20T22:55:39.971Z,19.58
2018-01-20T22:58:06.850Z,22.27
2018-01-20T23:00:33.732Z,21.33
2018-01-20T23:03:00.595Z,20.88
2018-01-20T23:05:27.457Z,21.98
2018-01-20T23:07:54.378Z,28.65
2018-01-20T23:10:21.209Z,29.40
2018-01-20T23:12:48.047Z,25.90
2018-01-20T23:15:14.898Z,25.35
2018-01-20T23:17:41.786Z,26.00
2018-01-20T23:20:08.647Z,25.67
2018-01-20T23:22:35.498Z,23.65
2018-01-20T23:25:03.125Z,23.27
2018-01-20T23:27:30.059Z,25.73
2018-01-20T23:29:57.894Z,24.63
2018-01-20T23:32:25.461Z,27.98
2018-01-20T23:34:53.010Z,30.08
2018-01-20T23:37:19.961Z,35.67
2018-01-20T23:39:46.830Z,34.25
2018-01-20T23:42:13.739Z,33.22
2018-01-20T23:44:40.622Z,32.45
2018-01-20T23:47:07.488Z,29.40
2018-01-20T23:49:34.382Z,26.00
2018-01-20T23:52:01.217Z,21.87
2018-01-20T23:54:28.053Z,18.25
2018-01-20T23:56:55.686Z,17.25
2018-01-20T23:59:22.662Z,17.95
